sensor_id;sensor_type;location;lat;lon;timestamp;temperature;humidity
37300;DHT22;23184;51.902;12.836;2024-02-21T00:00:36;7.70;99.90
37300;DHT22;23184;51.902;12.836;2024-02-21T00:03:04;7.80;99.90
37300;DHT22;23184;51.902;12.836;2024-02-21T00:05:30;7.80;99.90
37300;DHT22;23184;51.902;12.836;2024-02-21T00:07:56;7.80;99.90
37300;DHT22;23184;51.902;12.836;2024-02-21T00:10:21;7.80;99.90
37300;DHT22;23184;51.902;12.836;2024-02-21T00:12:47;7.80;99.90
37300;DHT22;23184;51.902;12.836;2024-02-21T00:15:12;7.80;99.90
37300;DHT22;23184;51.902;12.836;2024-02-21T00:17:38;7.80;99.90
37300;DHT22;23184;51.902;12.836;2024-02-21T00:20:03;7.90;99.90
37300;DHT22;23184;51.902;12.836;2024-02-21T00:22:30;7.80;99.90
37300;DHT22;23184;51.902;12.836;2024-02-21T00:24:56;7.90;99.90
37300;DHT22;23184;51.902;12.836;2024-02-21T00:27:23;7.80;99.90
37300;DHT22;23184;51.902;12.836;2024-02-21T00:29:49;7.80;99.90
37300;DHT22;23184;51.902;12.836;2024-02-21T00:32:14;7.80;99.90
37300;DHT22;23184;51.902;12.836;2024-02-21T00:34:39;7.80;99.90
37300;DHT22;23184;51.902;12.836;2024-02-21T00:37:05;7.80;99.90
37300;DHT22;23184;51.902;12.836;2024-02-21T00:39:31;7.80;99.90
37300;DHT22;23184;51.902;12.836;2024-02-21T00:41:56;7.80;99.90
37300;DHT22;23184;51.902;12.836;2024-02-21T00:44:22;7.80;99.90
37300;DHT22;23184;51.902;12.836;2024-02-21T00:46:47;7.80;99.90
37300;DHT22;23184;51.902;12.836;2024-02-21T00:49:13;7.80;99.90
37300;DHT22;23184;51.902;12.836;2024-02-21T00:51:38;7.80;99.90
37300;DHT22;23184;51.902;12.836;2024-02-21T00:54:04;7.80;99.90
37300;DHT22;23184;51.902;12.836;2024-02-21T00:56:29;7.80;99.90
37300;DHT22;23184;51.902;12.836;2024-02-21T00:58:56;7.80;99.90
37300;DHT22;23184;51.902;12.836;2024-02-21T01:01:23;7.80;99.90
37300;DHT22;23184;51.902;12.836;2024-02-21T01:03:49;7.80;99.90
37300;DHT22;23184;51.902;12.836;2024-02-21T01:06:15;7.80;99.90
37300;DHT22;23184;51.902;12.836;2024-02-21T01:08:40;7.90;99.90
37300;DHT22;23184;51.902;12.836;2024-02-21T01:11:05;7.80;99.90
37300;DHT22;23184;51.902;12.836;2024-02-21T01:13:31;7.80;99.90
37300;DHT22;23184;51.902;12.836;2024-02-21T01:15:56;7.80;99.90
37300;DHT22;23184;51.902;12.836;2024-02-21T01:18:22;7.80;99.90
37300;DHT22;23184;51.902;12.836;2024-02-21T01:20:47;7.70;99.90
37300;DHT22;23184;51.902;12.836;2024-02-21T01:23:13;7.70;99.90
37300;DHT22;23184;51.902;12.836;2024-02-21T01:25:38;7.70;99.90
37300;DHT22;23184;51.902;12.836;2024-02-21T01:28:04;7.70;99.90
37300;DHT22;23184;51.902;12.836;2024-02-21T01:30:29;7.70;99.90
37300;DHT22;23184;51.902;12.836;2024-02-21T01:32:55;7.60;99.90
37300;DHT22;23184;51.902;12.836;2024-02-21T01:35:20;7.50;99.90
37300;DHT22;23184;51.902;12.836;2024-02-21T01:37:46;7.40;99.90
37300;DHT22;23184;51.902;12.836;2024-02-21T01:40:12;7.30;99.90
37300;DHT22;23184;51.902;12.836;2024-02-21T01:42:40;7.30;99.90
37300;DHT22;23184;51.902;12.836;2024-02-21T01:45:06;7.20;99.90
37300;DHT22;23184;51.902;12.836;2024-02-21T01:47:32;7.20;99.90
37300;DHT22;23184;51.902;12.836;2024-02-21T01:49:57;7.20;99.90
37300;DHT22;23184;51.902;12.836;2024-02-21T01:52:23;7.20;99.90
37300;DHT22;23184;51.902;12.836;2024-02-21T01:54:49;7.20;99.90
37300;DHT22;23184;51.902;12.836;2024-02-21T01:57:15;7.20;99.90
37300;DHT22;23184;51.902;12.836;2024-02-21T01:59:40;7.20;99.90
37300;DHT22;23184;51.902;12.836;2024-02-21T02:02:06;7.20;99.90
37300;DHT22;23184;51.902;12.836;2024-02-21T02:04:32;7.20;99.90
37300;DHT22;23184;51.902;12.836;2024-02-21T02:07:00;7.20;99.90
37300;DHT22;23184;51.902;12.836;2024-02-21T02:09:27;7.20;99.90
37300;DHT22;23184;51.902;12.836;2024-02-21T02:11:53;7.20;99.90
37300;DHT22;23184;51.902;12.836;2024-02-21T02:14:18;7.10;99.90
37300;DHT22;23184;51.902;12.836;2024-02-21T02:16:46;7.10;99.90
37300;DHT22;23184;51.902;12.836;2024-02-21T02:19:13;7.10;99.90
37300;DHT22;23184;51.902;12.836;2024-02-21T02:21:40;7.20;99.90
37300;DHT22;23184;51.902;12.836;2024-02-21T02:24:07;7.10;99.90
37300;DHT22;23184;51.902;12.836;2024-02-21T02:26:33;7.10;99.90
37300;DHT22;23184;51.902;12.836;2024-02-21T02:28:58;7.10;99.90
37300;DHT22;23184;51.902;12.836;2024-02-21T02:31:26;7.10;99.90
37300;DHT22;23184;51.902;12.836;2024-02-21T02:33:51;7.10;99.90
37300;DHT22;23184;51.902;12.836;2024-02-21T02:36:17;7.10;99.90
37300;DHT22;23184;51.902;12.836;2024-02-21T02:38:43;7.10;99.90
37300;DHT22;23184;51.902;12.836;2024-02-21T02:41:08;7.10;99.90
37300;DHT22;23184;51.902;12.836;2024-02-21T02:43:34;7.10;99.90
37300;DHT22;23184;51.902;12.836;2024-02-21T02:45:59;7.10;99.90
37300;DHT22;23184;51.902;12.836;2024-02-21T02:48:25;7.10;99.90
37300;DHT22;23184;51.902;12.836;2024-02-21T02:50:50;7.10;99.90
37300;DHT22;23184;51.902;12.836;2024-02-21T02:53:16;7.10;99.90
37300;DHT22;23184;51.902;12.836;2024-02-21T02:55:41;7.10;99.90
37300;DHT22;23184;51.902;12.836;2024-02-21T02:58:07;7.10;99.90
37300;DHT22;23184;51.902;12.836;2024-02-21T03:00:34;7.10;99.90
37300;DHT22;23184;51.902;12.836;2024-02-21T03:03:01;7.10;99.90
37300;DHT22;23184;51.902;12.836;2024-02-21T03:05:29;7.20;99.90
37300;DHT22;23184;51.902;12.836;2024-02-21T03:07:54;7.20;99.90
37300;DHT22;23184;51.902;12.836;2024-02-21T03:10:21;7.20;99.90
37300;DHT22;23184;51.902;12.836;2024-02-21T03:12:46;7.30;99.90
37300;DHT22;23184;51.902;12.836;2024-02-21T03:15:13;7.20;99.90
37300;DHT22;23184;51.902;12.836;2024-02-21T03:17:38;7.20;99.90
37300;DHT22;23184;51.902;12.836;2024-02-21T03:20:05;7.10;99.90
37300;DHT22;23184;51.902;12.836;2024-02-21T03:22:31;7.20;99.90
37300;DHT22;23184;51.902;12.836;2024-02-21T03:24:57;7.10;99.90
37300;DHT22;23184;51.902;12.836;2024-02-21T03:27:23;7.10;99.90
37300;DHT22;23184;51.902;12.836;2024-02-21T03:29:49;7.10;99.90
37300;DHT22;23184;51.902;12.836;2024-02-21T03:32:14;7.10;99.90
37300;DHT22;23184;51.902;12.836;2024-02-21T03:34:40;7.10;99.90
37300;DHT22;23184;51.902;12.836;2024-02-21T03:37:05;7.10;99.90
37300;DHT22;23184;51.902;12.836;2024-02-21T03:39:31;7.00;99.90
37300;DHT22;23184;51.902;12.836;2024-02-21T03:41:57;7.00;99.90
37300;DHT22;23184;51.902;12.836;2024-02-21T03:44:23;7.00;99.90
37300;DHT22;23184;51.902;12.836;2024-02-21T03:46:48;7.00;99.90
37300;DHT22;23184;51.902;12.836;2024-02-21T03:49:14;7.00;99.90
37300;DHT22;23184;51.902;12.836;2024-02-21T03:51:39;7.00;99.90
37300;DHT22;23184;51.902;12.836;2024-02-21T03:54:05;7.00;99.90
37300;DHT22;23184;51.902;12.836;2024-02-21T03:56:30;7.00;99.90
37300;DHT22;23184;51.902;12.836;2024-02-21T03:58:56;7.00;99.90
37300;DHT22;23184;51.902;12.836;2024-02-21T04:01:21;7.00;99.90
37300;DHT22;23184;51.902;12.836;2024-02-21T04:03:47;7.00;99.90
37300;DHT22;23184;51.902;12.836;2024-02-21T04:06:12;7.00;99.90
37300;DHT22;23184;51.902;12.836;2024-02-21T04:08:39;6.90;99.90
37300;DHT22;23184;51.902;12.836;2024-02-21T04:11:04;7.00;99.90
37300;DHT22;23184;51.902;12.836;2024-02-21T04:13:30;6.90;99.90
37300;DHT22;23184;51.902;12.836;2024-02-21T04:15:55;7.00;99.90
37300;DHT22;23184;51.902;12.836;2024-02-21T04:18:21;6.90;99.90
37300;DHT22;23184;51.902;12.836;2024-02-21T04:20:47;6.90;99.90
37300;DHT22;23184;51.902;12.836;2024-02-21T04:23:12;6.90;99.90
37300;DHT22;23184;51.902;12.836;2024-02-21T04:25:38;6.90;99.90
37300;DHT22;23184;51.902;12.836;2024-02-21T04:28:03;6.80;99.90
37300;DHT22;23184;51.902;12.836;2024-02-21T04:30:29;6.80;99.90
37300;DHT22;23184;51.902;12.836;2024-02-21T04:32:54;6.80;99.90
37300;DHT22;23184;51.902;12.836;2024-02-21T04:35:20;6.70;99.90
37300;DHT22;23184;51.902;12.836;2024-02-21T04:37:46;6.70;99.90
37300;DHT22;23184;51.902;12.836;2024-02-21T04:40:11;6.70;99.90
37300;DHT22;23184;51.902;12.836;2024-02-21T04:42:37;6.70;99.90
37300;DHT22;23184;51.902;12.836;2024-02-21T04:45:03;6.70;99.90
37300;DHT22;23184;51.902;12.836;2024-02-21T04:47:28;6.70;99.90
37300;DHT22;23184;51.902;12.836;2024-02-21T04:49:54;6.70;99.90
37300;DHT22;23184;51.902;12.836;2024-02-21T04:52:19;6.70;99.90
37300;DHT22;23184;51.902;12.836;2024-02-21T04:54:45;6.70;99.90
37300;DHT22;23184;51.902;12.836;2024-02-21T04:57:10;6.70;99.90
37300;DHT22;23184;51.902;12.836;2024-02-21T04:59:36;6.70;99.90
37300;DHT22;23184;51.902;12.836;2024-02-21T05:02:02;6.70;99.90
37300;DHT22;23184;51.902;12.836;2024-02-21T05:04:28;6.70;99.90
37300;DHT22;23184;51.902;12.836;2024-02-21T05:06:53;6.70;99.90
37300;DHT22;23184;51.902;12.836;2024-02-21T05:09:20;6.70;99.90
37300;DHT22;23184;51.902;12.836;2024-02-21T05:11:45;6.70;99.90
37300;DHT22;23184;51.902;12.836;2024-02-21T05:14:11;6.70;99.90
37300;DHT22;23184;51.902;12.836;2024-02-21T05:16:38;6.70;99.90
37300;DHT22;23184;51.902;12.836;2024-02-21T05:19:04;6.70;99.90
37300;DHT22;23184;51.902;12.836;2024-02-21T05:21:29;6.70;99.90
37300;DHT22;23184;51.902;12.836;2024-02-21T05:23:55;6.70;99.90
37300;DHT22;23184;51.902;12.836;2024-02-21T05:26:28;6.80;99.90
37300;DHT22;23184;51.902;12.836;2024-02-21T05:28:54;6.80;99.90
37300;DHT22;23184;51.902;12.836;2024-02-21T05:31:20;6.70;99.90
37300;DHT22;23184;51.902;12.836;2024-02-21T05:33:46;6.70;99.90
37300;DHT22;23184;51.902;12.836;2024-02-21T05:36:12;6.80;99.90
37300;DHT22;23184;51.902;12.836;2024-02-21T05:38:38;6.80;99.90
37300;DHT22;23184;51.902;12.836;2024-02-21T05:41:04;6.80;99.90
37300;DHT22;23184;51.902;12.836;2024-02-21T05:43:29;6.80;99.90
37300;DHT22;23184;51.902;12.836;2024-02-21T05:45:55;6.90;99.90
37300;DHT22;23184;51.902;12.836;2024-02-21T05:48:23;6.90;99.90
37300;DHT22;23184;51.902;12.836;2024-02-21T05:50:49;6.80;99.90
37300;DHT22;23184;51.902;12.836;2024-02-21T05:53:15;6.80;99.90
37300;DHT22;23184;51.902;12.836;2024-02-21T05:55:41;6.80;99.90
37300;DHT22;23184;51.902;12.836;2024-02-21T05:58:06;6.90;99.90
37300;DHT22;23184;51.902;12.836;2024-02-21T06:00:33;6.90;99.90
37300;DHT22;23184;51.902;12.836;2024-02-21T06:02:59;6.90;99.90
37300;DHT22;23184;51.902;12.836;2024-02-21T06:05:24;6.90;99.90
37300;DHT22;23184;51.902;12.836;2024-02-21T06:07:50;6.90;99.90
37300;DHT22;23184;51.902;12.836;2024-02-21T06:10:16;6.90;99.90
37300;DHT22;23184;51.902;12.836;2024-02-21T06:12:41;7.00;99.90
37300;DHT22;23184;51.902;12.836;2024-02-21T06:15:07;6.90;99.90
37300;DHT22;23184;51.902;12.836;2024-02-21T06:17:33;7.00;99.90
37300;DHT22;23184;51.902;12.836;2024-02-21T06:19:58;7.00;99.90
37300;DHT22;23184;51.902;12.836;2024-02-21T06:22:24;7.00;99.90
37300;DHT22;23184;51.902;12.836;2024-02-21T06:24:49;7.00;99.90
37300;DHT22;23184;51.902;12.836;2024-02-21T06:27:15;7.00;99.90
37300;DHT22;23184;51.902;12.836;2024-02-21T06:29:41;7.00;99.90
37300;DHT22;23184;51.902;12.836;2024-02-21T06:32:07;7.00;99.90
37300;DHT22;23184;51.902;12.836;2024-02-21T06:34:33;7.00;99.90
37300;DHT22;23184;51.902;12.836;2024-02-21T06:36:58;7.00;99.90
37300;DHT22;23184;51.902;12.836;2024-02-21T06:39:24;7.00;99.90
37300;DHT22;23184;51.902;12.836;2024-02-21T06:41:50;7.00;99.90
37300;DHT22;23184;51.902;12.836;2024-02-21T06:44:16;7.10;99.90
37300;DHT22;23184;51.902;12.836;2024-02-21T06:46:42;7.10;99.90
37300;DHT22;23184;51.902;12.836;2024-02-21T06:49:07;7.10;99.90
37300;DHT22;23184;51.902;12.836;2024-02-21T06:51:33;7.10;99.90
37300;DHT22;23184;51.902;12.836;2024-02-21T06:54:00;7.10;99.90
37300;DHT22;23184;51.902;12.836;2024-02-21T06:56:25;7.10;99.90
37300;DHT22;23184;51.902;12.836;2024-02-21T06:58:57;7.10;99.90
37300;DHT22;23184;51.902;12.836;2024-02-21T07:01:23;7.10;99.90
37300;DHT22;23184;51.902;12.836;2024-02-21T07:03:49;7.10;99.90
37300;DHT22;23184;51.902;12.836;2024-02-21T07:06:14;7.20;99.90
37300;DHT22;23184;51.902;12.836;2024-02-21T07:08:40;7.20;99.90
37300;DHT22;23184;51.902;12.836;2024-02-21T07:11:06;7.20;99.90
37300;DHT22;23184;51.902;12.836;2024-02-21T07:13:32;7.20;99.90
37300;DHT22;23184;51.902;12.836;2024-02-21T07:15:58;7.30;99.90
37300;DHT22;23184;51.902;12.836;2024-02-21T07:18:23;7.30;99.90
37300;DHT22;23184;51.902;12.836;2024-02-21T07:20:51;7.30;99.90
37300;DHT22;23184;51.902;12.836;2024-02-21T07:23:16;7.40;99.90
37300;DHT22;23184;51.902;12.836;2024-02-21T07:25:42;7.40;99.90
37300;DHT22;23184;51.902;12.836;2024-02-21T07:28:08;7.40;99.90
37300;DHT22;23184;51.902;12.836;2024-02-21T07:30:33;7.40;99.90
37300;DHT22;23184;51.902;12.836;2024-02-21T07:32:59;7.40;99.90
37300;DHT22;23184;51.902;12.836;2024-02-21T07:35:24;7.40;99.90
37300;DHT22;23184;51.902;12.836;2024-02-21T07:37:51;7.50;99.90
37300;DHT22;23184;51.902;12.836;2024-02-21T07:40:17;7.50;99.90
37300;DHT22;23184;51.902;12.836;2024-02-21T07:42:43;7.60;99.90
37300;DHT22;23184;51.902;12.836;2024-02-21T07:45:09;7.60;99.90
37300;DHT22;23184;51.902;12.836;2024-02-21T07:47:36;7.60;99.90
37300;DHT22;23184;51.902;12.836;2024-02-21T07:50:02;7.70;99.90
37300;DHT22;23184;51.902;12.836;2024-02-21T07:52:28;7.70;99.90
37300;DHT22;23184;51.902;12.836;2024-02-21T07:54:53;7.70;99.90
37300;DHT22;23184;51.902;12.836;2024-02-21T07:57:19;7.70;99.90
37300;DHT22;23184;51.902;12.836;2024-02-21T07:59:44;7.70;99.90
37300;DHT22;23184;51.902;12.836;2024-02-21T08:02:13;7.80;99.90
37300;DHT22;23184;51.902;12.836;2024-02-21T08:04:38;7.80;99.90
37300;DHT22;23184;51.902;12.836;2024-02-21T08:07:04;7.80;99.90
37300;DHT22;23184;51.902;12.836;2024-02-21T08:09:30;7.80;99.90
37300;DHT22;23184;51.902;12.836;2024-02-21T08:11:55;7.90;99.90
37300;DHT22;23184;51.902;12.836;2024-02-21T08:14:21;7.90;99.90
37300;DHT22;23184;51.902;12.836;2024-02-21T08:16:47;7.90;99.90
37300;DHT22;23184;51.902;12.836;2024-02-21T08:19:13;7.90;99.90
37300;DHT22;23184;51.902;12.836;2024-02-21T08:21:38;7.90;99.90
37300;DHT22;23184;51.902;12.836;2024-02-21T08:24:04;8.00;99.90
37300;DHT22;23184;51.902;12.836;2024-02-21T08:26:30;8.00;99.90
37300;DHT22;23184;51.902;12.836;2024-02-21T08:28:56;8.00;99.90
37300;DHT22;23184;51.902;12.836;2024-02-21T08:31:25;8.00;99.90
37300;DHT22;23184;51.902;12.836;2024-02-21T08:34:02;8.10;99.90
37300;DHT22;23184;51.902;12.836;2024-02-21T08:36:31;8.10;99.90
37300;DHT22;23184;51.902;12.836;2024-02-21T08:38:58;8.20;99.90
37300;DHT22;23184;51.902;12.836;2024-02-21T08:41:24;8.20;99.90
37300;DHT22;23184;51.902;12.836;2024-02-21T08:43:53;8.30;99.90
37300;DHT22;23184;51.902;12.836;2024-02-21T08:46:21;8.30;99.90
37300;DHT22;23184;51.902;12.836;2024-02-21T08:48:49;8.30;99.90
37300;DHT22;23184;51.902;12.836;2024-02-21T08:51:15;8.30;99.90
37300;DHT22;23184;51.902;12.836;2024-02-21T08:53:41;8.40;99.90
37300;DHT22;23184;51.902;12.836;2024-02-21T08:56:06;8.40;99.90
37300;DHT22;23184;51.902;12.836;2024-02-21T08:58:36;8.40;99.90
37300;DHT22;23184;51.902;12.836;2024-02-21T09:01:03;8.40;99.90
37300;DHT22;23184;51.902;12.836;2024-02-21T09:03:31;8.50;99.90
37300;DHT22;23184;51.902;12.836;2024-02-21T09:05:57;8.50;99.90
37300;DHT22;23184;51.902;12.836;2024-02-21T09:08:22;8.60;99.90
37300;DHT22;23184;51.902;12.836;2024-02-21T09:10:49;8.70;99.90
37300;DHT22;23184;51.902;12.836;2024-02-21T09:13:15;8.60;99.90
37300;DHT22;23184;51.902;12.836;2024-02-21T09:15:40;8.60;99.90
37300;DHT22;23184;51.902;12.836;2024-02-21T09:18:06;8.70;99.90
37300;DHT22;23184;51.902;12.836;2024-02-21T09:20:31;8.70;99.90
37300;DHT22;23184;51.902;12.836;2024-02-21T09:22:57;8.70;99.90
37300;DHT22;23184;51.902;12.836;2024-02-21T09:25:22;8.70;99.90
37300;DHT22;23184;51.902;12.836;2024-02-21T09:27:48;8.80;99.90
37300;DHT22;23184;51.902;12.836;2024-02-21T09:30:13;9.00;99.90
37300;DHT22;23184;51.902;12.836;2024-02-21T09:32:39;9.00;99.90
37300;DHT22;23184;51.902;12.836;2024-02-21T09:35:05;8.90;99.90
37300;DHT22;23184;51.902;12.836;2024-02-21T09:37:31;9.00;99.90
37300;DHT22;23184;51.902;12.836;2024-02-21T09:39:57;9.00;99.90
37300;DHT22;23184;51.902;12.836;2024-02-21T09:42:29;9.00;99.90
37300;DHT22;23184;51.902;12.836;2024-02-21T09:44:57;9.00;99.90
37300;DHT22;23184;51.902;12.836;2024-02-21T09:47:27;9.00;99.90
37300;DHT22;23184;51.902;12.836;2024-02-21T09:49:56;9.00;99.90
37300;DHT22;23184;51.902;12.836;2024-02-21T09:52:22;9.10;99.90
37300;DHT22;23184;51.902;12.836;2024-02-21T09:54:49;9.10;99.90
37300;DHT22;23184;51.902;12.836;2024-02-21T09:57:18;9.20;99.90
37300;DHT22;23184;51.902;12.836;2024-02-21T09:59:43;9.10;99.90
37300;DHT22;23184;51.902;12.836;2024-02-21T10:02:11;9.20;99.90
37300;DHT22;23184;51.902;12.836;2024-02-21T10:04:39;9.30;99.90
37300;DHT22;23184;51.902;12.836;2024-02-21T10:07:04;9.30;99.90
37300;DHT22;23184;51.902;12.836;2024-02-21T10:09:30;9.40;99.90
37300;DHT22;23184;51.902;12.836;2024-02-21T10:12:07;9.50;99.90
37300;DHT22;23184;51.902;12.836;2024-02-21T10:14:32;9.70;99.90
37300;DHT22;23184;51.902;12.836;2024-02-21T10:16:58;9.80;99.90
37300;DHT22;23184;51.902;12.836;2024-02-21T10:19:24;9.90;99.90
37300;DHT22;23184;51.902;12.836;2024-02-21T10:22:01;9.80;99.90
37300;DHT22;23184;51.902;12.836;2024-02-21T10:24:30;9.70;99.90
37300;DHT22;23184;51.902;12.836;2024-02-21T10:27:01;9.60;99.90
37300;DHT22;23184;51.902;12.836;2024-02-21T10:29:27;9.60;99.90
37300;DHT22;23184;51.902;12.836;2024-02-21T10:32:06;9.60;99.90
37300;DHT22;23184;51.902;12.836;2024-02-21T10:34:33;9.60;99.90
37300;DHT22;23184;51.902;12.836;2024-02-21T10:39:29;9.50;99.90
37300;DHT22;23184;51.902;12.836;2024-02-21T10:41:57;9.60;99.90
37300;DHT22;23184;51.902;12.836;2024-02-21T10:44:25;9.70;99.90
37300;DHT22;23184;51.902;12.836;2024-02-21T10:46:52;9.70;99.90
37300;DHT22;23184;51.902;12.836;2024-02-21T10:49:26;9.70;99.90
37300;DHT22;23184;51.902;12.836;2024-02-21T10:52:14;9.70;99.90
37300;DHT22;23184;51.902;12.836;2024-02-21T10:54:44;9.80;99.90
37300;DHT22;23184;51.902;12.836;2024-02-21T10:57:15;9.80;99.90
37300;DHT22;23184;51.902;12.836;2024-02-21T10:59:44;10.00;99.90
37300;DHT22;23184;51.902;12.836;2024-02-21T11:02:10;10.30;99.90
37300;DHT22;23184;51.902;12.836;2024-02-21T11:04:36;10.50;99.90
37300;DHT22;23184;51.902;12.836;2024-02-21T11:07:03;10.60;99.90
37300;DHT22;23184;51.902;12.836;2024-02-21T11:09:30;10.80;99.90
37300;DHT22;23184;51.902;12.836;2024-02-21T11:12:04;11.00;99.90
37300;DHT22;23184;51.902;12.836;2024-02-21T11:14:30;10.90;99.90
37300;DHT22;23184;51.902;12.836;2024-02-21T11:17:01;10.80;99.90
37300;DHT22;23184;51.902;12.836;2024-02-21T11:19:28;10.80;99.90
37300;DHT22;23184;51.902;12.836;2024-02-21T11:21:58;10.70;99.90
37300;DHT22;23184;51.902;12.836;2024-02-21T11:24:27;10.60;99.90
37300;DHT22;23184;51.902;12.836;2024-02-21T11:26:54;10.60;99.90
37300;DHT22;23184;51.902;12.836;2024-02-21T11:29:26;10.70;99.90
37300;DHT22;23184;51.902;12.836;2024-02-21T11:31:52;10.90;99.90
37300;DHT22;23184;51.902;12.836;2024-02-21T11:34:18;10.90;99.90
37300;DHT22;23184;51.902;12.836;2024-02-21T11:36:51;10.80;99.90
37300;DHT22;23184;51.902;12.836;2024-02-21T11:39:22;11.10;99.90
37300;DHT22;23184;51.902;12.836;2024-02-21T11:42:06;11.20;99.90
37300;DHT22;23184;51.902;12.836;2024-02-21T11:44:35;11.30;99.90
37300;DHT22;23184;51.902;12.836;2024-02-21T11:47:06;11.20;99.90
37300;DHT22;23184;51.902;12.836;2024-02-21T11:49:37;11.30;99.90
37300;DHT22;23184;51.902;12.836;2024-02-21T11:52:06;11.10;99.90
37300;DHT22;23184;51.902;12.836;2024-02-21T11:54:32;11.10;99.90
37300;DHT22;23184;51.902;12.836;2024-02-21T11:56:58;11.10;99.90
37300;DHT22;23184;51.902;12.836;2024-02-21T11:59:24;11.20;99.90
37300;DHT22;23184;51.902;12.836;2024-02-21T12:01:49;11.10;99.90
37300;DHT22;23184;51.902;12.836;2024-02-21T12:04:17;11.20;99.90
37300;DHT22;23184;51.902;12.836;2024-02-21T12:06:45;11.10;99.90
37300;DHT22;23184;51.902;12.836;2024-02-21T12:09:14;11.30;99.90
37300;DHT22;23184;51.902;12.836;2024-02-21T12:11:41;11.20;99.90
37300;DHT22;23184;51.902;12.836;2024-02-21T12:14:06;11.00;99.90
37300;DHT22;23184;51.902;12.836;2024-02-21T12:16:33;11.10;99.90
37300;DHT22;23184;51.902;12.836;2024-02-21T12:19:02;10.90;99.90
37300;DHT22;23184;51.902;12.836;2024-02-21T12:21:33;10.80;99.90
37300;DHT22;23184;51.902;12.836;2024-02-21T12:24:32;10.80;99.90
37300;DHT22;23184;51.902;12.836;2024-02-21T12:26:57;10.70;99.90
37300;DHT22;23184;51.902;12.836;2024-02-21T12:29:24;10.70;99.90
37300;DHT22;23184;51.902;12.836;2024-02-21T12:31:50;10.70;99.90
37300;DHT22;23184;51.902;12.836;2024-02-21T12:34:16;10.80;99.90
37300;DHT22;23184;51.902;12.836;2024-02-21T12:36:42;10.80;99.90
37300;DHT22;23184;51.902;12.836;2024-02-21T12:39:09;10.80;99.90
37300;DHT22;23184;51.902;12.836;2024-02-21T12:41:35;10.80;99.90
37300;DHT22;23184;51.902;12.836;2024-02-21T12:44:04;10.70;99.90
37300;DHT22;23184;51.902;12.836;2024-02-21T12:46:30;10.70;99.90
37300;DHT22;23184;51.902;12.836;2024-02-21T12:48:55;10.70;99.90
37300;DHT22;23184;51.902;12.836;2024-02-21T12:51:21;10.60;99.90
37300;DHT22;23184;51.902;12.836;2024-02-21T12:53:47;10.60;99.90
37300;DHT22;23184;51.902;12.836;2024-02-21T12:56:15;10.60;99.90
37300;DHT22;23184;51.902;12.836;2024-02-21T12:58:40;10.60;99.90
37300;DHT22;23184;51.902;12.836;2024-02-21T13:01:06;10.50;99.90
37300;DHT22;23184;51.902;12.836;2024-02-21T13:03:31;10.60;99.90
37300;DHT22;23184;51.902;12.836;2024-02-21T13:05:57;10.60;99.90
37300;DHT22;23184;51.902;12.836;2024-02-21T13:08:24;10.70;99.90
37300;DHT22;23184;51.902;12.836;2024-02-21T13:10:50;10.50;99.90
37300;DHT22;23184;51.902;12.836;2024-02-21T13:13:15;10.60;99.90
37300;DHT22;23184;51.902;12.836;2024-02-21T13:15:41;10.60;99.90
37300;DHT22;23184;51.902;12.836;2024-02-21T13:18:08;10.60;99.90
37300;DHT22;23184;51.902;12.836;2024-02-21T13:20:34;10.50;99.90
37300;DHT22;23184;51.902;12.836;2024-02-21T13:22:59;10.50;99.90
37300;DHT22;23184;51.902;12.836;2024-02-21T13:25:25;10.50;99.90
37300;DHT22;23184;51.902;12.836;2024-02-21T13:27:50;10.50;99.90
37300;DHT22;23184;51.902;12.836;2024-02-21T13:30:16;10.50;99.90
37300;DHT22;23184;51.902;12.836;2024-02-21T13:32:43;10.50;99.90
37300;DHT22;23184;51.902;12.836;2024-02-21T13:35:11;10.50;99.90
37300;DHT22;23184;51.902;12.836;2024-02-21T13:37:38;10.50;99.90
37300;DHT22;23184;51.902;12.836;2024-02-21T13:40:04;10.50;99.90
37300;DHT22;23184;51.902;12.836;2024-02-21T13:42:30;10.60;99.90
37300;DHT22;23184;51.902;12.836;2024-02-21T13:44:55;10.60;99.90
37300;DHT22;23184;51.902;12.836;2024-02-21T13:47:21;10.60;99.90
37300;DHT22;23184;51.902;12.836;2024-02-21T13:49:46;10.60;99.90
37300;DHT22;23184;51.902;12.836;2024-02-21T13:52:13;10.60;99.90
37300;DHT22;23184;51.902;12.836;2024-02-21T13:54:38;10.60;99.90
37300;DHT22;23184;51.902;12.836;2024-02-21T13:57:04;10.60;99.90
37300;DHT22;23184;51.902;12.836;2024-02-21T13:59:29;10.60;99.90
37300;DHT22;23184;51.902;12.836;2024-02-21T14:01:55;10.70;99.90
37300;DHT22;23184;51.902;12.836;2024-02-21T14:04:21;10.90;99.90
37300;DHT22;23184;51.902;12.836;2024-02-21T14:06:47;11.30;99.90
37300;DHT22;23184;51.902;12.836;2024-02-21T14:09:13;11.30;99.90
37300;DHT22;23184;51.902;12.836;2024-02-21T14:11:38;11.30;99.90
37300;DHT22;23184;51.902;12.836;2024-02-21T14:14:05;11.00;99.90
37300;DHT22;23184;51.902;12.836;2024-02-21T14:16:31;10.80;99.90
37300;DHT22;23184;51.902;12.836;2024-02-21T14:18:57;10.70;99.90
37300;DHT22;23184;51.902;12.836;2024-02-21T14:21:22;10.50;99.90
37300;DHT22;23184;51.902;12.836;2024-02-21T14:23:48;10.40;99.90
37300;DHT22;23184;51.902;12.836;2024-02-21T14:26:13;10.40;99.90
37300;DHT22;23184;51.902;12.836;2024-02-21T14:28:41;10.30;99.90
37300;DHT22;23184;51.902;12.836;2024-02-21T14:31:07;10.30;99.90
37300;DHT22;23184;51.902;12.836;2024-02-21T14:33:35;10.30;99.90
37300;DHT22;23184;51.902;12.836;2024-02-21T14:36:00;10.20;99.90
37300;DHT22;23184;51.902;12.836;2024-02-21T14:38:26;10.20;99.90
37300;DHT22;23184;51.902;12.836;2024-02-21T14:40:52;10.10;99.90
37300;DHT22;23184;51.902;12.836;2024-02-21T14:43:18;10.10;99.90
37300;DHT22;23184;51.902;12.836;2024-02-21T14:45:44;10.00;99.90
37300;DHT22;23184;51.902;12.836;2024-02-21T14:48:12;10.10;99.90
37300;DHT22;23184;51.902;12.836;2024-02-21T14:50:38;10.40;99.90
37300;DHT22;23184;51.902;12.836;2024-02-21T14:53:03;10.70;99.90
37300;DHT22;23184;51.902;12.836;2024-02-21T14:55:29;10.70;99.90
37300;DHT22;23184;51.902;12.836;2024-02-21T14:57:55;10.80;99.90
37300;DHT22;23184;51.902;12.836;2024-02-21T15:00:21;10.60;99.90
37300;DHT22;23184;51.902;12.836;2024-02-21T15:02:53;10.60;99.90
37300;DHT22;23184;51.902;12.836;2024-02-21T15:05:19;10.40;99.90
37300;DHT22;23184;51.902;12.836;2024-02-21T15:07:45;10.20;99.90
37300;DHT22;23184;51.902;12.836;2024-02-21T15:10:10;10.10;99.90
37300;DHT22;23184;51.902;12.836;2024-02-21T15:12:36;10.10;99.90
37300;DHT22;23184;51.902;12.836;2024-02-21T15:15:02;10.00;99.90
37300;DHT22;23184;51.902;12.836;2024-02-21T15:17:29;9.90;99.90
37300;DHT22;23184;51.902;12.836;2024-02-21T15:19:55;9.90;99.90
37300;DHT22;23184;51.902;12.836;2024-02-21T15:22:21;9.80;99.90
37300;DHT22;23184;51.902;12.836;2024-02-21T15:24:48;9.80;99.90